sensor_id;sensor_type;location;lat;lon;timestamp;P1;durP1;ratioP1;P2;durP2;ratioP2
13079;SDS011;6606;49.154;9.280;2022-07-26T00:01:33;1.92;;;1.20;;
13079;SDS011;6606;49.154;9.280;2022-07-26T00:04:00;2.97;;;1.50;;
13079;SDS011;6606;49.154;9.280;2022-07-26T00:06:27;2.28;;;1.38;;
13079;SDS011;6606;49.154;9.280;2022-07-26T00:08:54;2.88;;;1.25;;
13079;SDS011;6606;49.154;9.280;2022-07-26T00:11:21;2.08;;;1.40;;
13079;SDS011;6606;49.154;9.280;2022-07-26T00:13:49;5.50;;;1.40;;
13079;SDS011;6606;49.154;9.280;2022-07-26T00:16:16;3.50;;;1.42;;
13079;SDS011;6606;49.154;9.280;2022-07-26T00:18:42;2.00;;;1.27;;
13079;SDS011;6606;49.154;9.280;2022-07-26T00:21:10;2.45;;;1.30;;
13079;SDS011;6606;49.154;9.280;2022-07-26T00:23:37;2.22;;;1.48;;
13079;SDS011;6606;49.154;9.280;2022-07-26T00:26:03;3.38;;;1.30;;
13079;SDS011;6606;49.154;9.280;2022-07-26T00:28:30;3.67;;;1.45;;
13079;SDS011;6606;49.154;9.280;2022-07-26T00:30:58;2.90;;;1.40;;
13079;SDS011;6606;49.154;9.280;2022-07-26T00:33:25;2.38;;;1.42;;
13079;SDS011;6606;49.154;9.280;2022-07-26T00:35:52;4.35;;;1.50;;
13079;SDS011;6606;49.154;9.280;2022-07-26T00:38:18;4.32;;;1.65;;
13079;SDS011;6606;49.154;9.280;2022-07-26T00:40:45;2.88;;;1.60;;
13079;SDS011;6606;49.154;9.280;2022-07-26T00:43:12;3.88;;;1.50;;
13079;SDS011;6606;49.154;9.280;2022-07-26T00:45:38;3.47;;;1.33;;
13079;SDS011;6606;49.154;9.280;2022-07-26T00:48:07;1.83;;;1.30;;
13079;SDS011;6606;49.154;9.280;2022-07-26T00:50:34;3.53;;;1.58;;
13079;SDS011;6606;49.154;9.280;2022-07-26T00:53:00;2.20;;;1.20;;
13079;SDS011;6606;49.154;9.280;2022-07-26T00:55:27;3.08;;;1.40;;
13079;SDS011;6606;49.154;9.280;2022-07-26T00:57:54;3.50;;;1.60;;
13079;SDS011;6606;49.154;9.280;2022-07-26T01:00:21;3.33;;;1.50;;
13079;SDS011;6606;49.154;9.280;2022-07-26T01:02:51;3.92;;;1.40;;
13079;SDS011;6606;49.154;9.280;2022-07-26T01:05:20;3.50;;;1.70;;
13079;SDS011;6606;49.154;9.280;2022-07-26T01:07:47;3.53;;;1.55;;
13079;SDS011;6606;49.154;9.280;2022-07-26T01:10:14;5.32;;;1.50;;
13079;SDS011;6606;49.154;9.280;2022-07-26T01:12:42;2.22;;;1.50;;
13079;SDS011;6606;49.154;9.280;2022-07-26T01:15:10;3.28;;;1.42;;
13079;SDS011;6606;49.154;9.280;2022-07-26T01:17:39;1.88;;;1.50;;
13079;SDS011;6606;49.154;9.280;2022-07-26T01:20:07;2.70;;;1.55;;
13079;SDS011;6606;49.154;9.280;2022-07-26T01:22:36;2.72;;;1.75;;
13079;SDS011;6606;49.154;9.280;2022-07-26T01:25:03;1.70;;;1.38;;
13079;SDS011;6606;49.154;9.280;2022-07-26T01:27:31;1.73;;;1.60;;
13079;SDS011;6606;49.154;9.280;2022-07-26T01:29:58;1.80;;;1.50;;
13079;SDS011;6606;49.154;9.280;2022-07-26T01:32:25;3.40;;;1.48;;
13079;SDS011;6606;49.154;9.280;2022-07-26T01:34:51;2.20;;;1.52;;
13079;SDS011;6606;49.154;9.280;2022-07-26T01:37:19;3.80;;;1.70;;
13079;SDS011;6606;49.154;9.280;2022-07-26T01:39:47;2.17;;;1.40;;
13079;SDS011;6606;49.154;9.280;2022-07-26T01:42:14;2.92;;;1.67;;
13079;SDS011;6606;49.154;9.280;2022-07-26T01:44:40;3.00;;;1.50;;
13079;SDS011;6606;49.154;9.280;2022-07-26T01:47:07;3.05;;;1.50;;
13079;SDS011;6606;49.154;9.280;2022-07-26T01:49:34;3.70;;;1.70;;
13079;SDS011;6606;49.154;9.280;2022-07-26T01:52:00;3.67;;;1.60;;
13079;SDS011;6606;49.154;9.280;2022-07-26T01:54:27;3.63;;;1.50;;
13079;SDS011;6606;49.154;9.280;2022-07-26T01:56:55;2.17;;;1.42;;
13079;SDS011;6606;49.154;9.280;2022-07-26T01:59:22;4.43;;;1.65;;
13079;SDS011;6606;49.154;9.280;2022-07-26T02:01:49;3.50;;;1.40;;
13079;SDS011;6606;49.154;9.280;2022-07-26T02:04:15;2.92;;;1.67;;
13079;SDS011;6606;49.154;9.280;2022-07-26T02:06:56;2.90;;;1.42;;
13079;SDS011;6606;49.154;9.280;2022-07-26T02:09:23;3.78;;;1.70;;
13079;SDS011;6606;49.154;9.280;2022-07-26T02:11:49;2.88;;;1.40;;
13079;SDS011;6606;49.154;9.280;2022-07-26T02:14:17;4.30;;;1.58;;
13079;SDS011;6606;49.154;9.280;2022-07-26T02:16:44;2.88;;;1.60;;
13079;SDS011;6606;49.154;9.280;2022-07-26T02:19:11;3.35;;;1.42;;
13079;SDS011;6606;49.154;9.280;2022-07-26T02:21:37;3.00;;;1.63;;
13079;SDS011;6606;49.154;9.280;2022-07-26T02:24:05;2.92;;;1.70;;
13079;SDS011;6606;49.154;9.280;2022-07-26T02:26:32;2.33;;;1.50;;
13079;SDS011;6606;49.154;9.280;2022-07-26T02:28:59;4.57;;;1.80;;
13079;SDS011;6606;49.154;9.280;2022-07-26T02:31:27;2.63;;;1.60;;
13079;SDS011;6606;49.154;9.280;2022-07-26T02:33:53;1.50;;;1.40;;
13079;SDS011;6606;49.154;9.280;2022-07-26T02:36:20;3.72;;;1.67;;
13079;SDS011;6606;49.154;9.280;2022-07-26T02:38:46;2.10;;;1.70;;
13079;SDS011;6606;49.154;9.280;2022-07-26T02:41:13;2.70;;;1.70;;
13079;SDS011;6606;49.154;9.280;2022-07-26T02:43:40;2.75;;;1.60;;
13079;SDS011;6606;49.154;9.280;2022-07-26T02:46:06;1.75;;;1.50;;
13079;SDS011;6606;49.154;9.280;2022-07-26T02:48:34;1.63;;;1.40;;
13079;SDS011;6606;49.154;9.280;2022-07-26T02:51:01;6.95;;;1.83;;
13079;SDS011;6606;49.154;9.280;2022-07-26T02:53:28;3.33;;;1.88;;
13079;SDS011;6606;49.154;9.280;2022-07-26T02:55:55;3.38;;;1.60;;
13079;SDS011;6606;49.154;9.280;2022-07-26T02:58:22;3.10;;;1.63;;
13079;SDS011;6606;49.154;9.280;2022-07-26T03:00:50;2.70;;;1.65;;
13079;SDS011;6606;49.154;9.280;2022-07-26T03:03:17;3.97;;;1.60;;
13079;SDS011;6606;49.154;9.280;2022-07-26T03:05:45;2.80;;;1.80;;
13079;SDS011;6606;49.154;9.280;2022-07-26T03:08:12;3.97;;;1.83;;
13079;SDS011;6606;49.154;9.280;2022-07-26T03:10:39;3.42;;;1.63;;
13079;SDS011;6606;49.154;9.280;2022-07-26T03:13:05;2.30;;;1.50;;
13079;SDS011;6606;49.154;9.280;2022-07-26T03:15:32;2.47;;;1.70;;
13079;SDS011;6606;49.154;9.280;2022-07-26T03:17:59;2.50;;;1.77;;
13079;SDS011;6606;49.154;9.280;2022-07-26T03:20:26;2.00;;;1.50;;
13079;SDS011;6606;49.154;9.280;2022-07-26T03:22:54;5.18;;;1.70;;
13079;SDS011;6606;49.154;9.280;2022-07-26T03:25:21;3.22;;;1.50;;
13079;SDS011;6606;49.154;9.280;2022-07-26T03:27:47;3.88;;;1.48;;
13079;SDS011;6606;49.154;9.280;2022-07-26T03:30:14;3.83;;;1.45;;
13079;SDS011;6606;49.154;9.280;2022-07-26T03:32:41;4.57;;;1.67;;
13079;SDS011;6606;49.154;9.280;2022-07-26T03:35:08;2.60;;;1.60;;
13079;SDS011;6606;49.154;9.280;2022-07-26T03:37:34;3.33;;;1.73;;
13079;SDS011;6606;49.154;9.280;2022-07-26T03:40:02;2.33;;;1.73;;
13079;SDS011;6606;49.154;9.280;2022-07-26T03:42:31;3.13;;;1.83;;
13079;SDS011;6606;49.154;9.280;2022-07-26T03:44:58;5.78;;;1.58;;
13079;SDS011;6606;49.154;9.280;2022-07-26T03:47:24;3.25;;;1.70;;
13079;SDS011;6606;49.154;9.280;2022-07-26T03:49:51;2.95;;;1.75;;
13079;SDS011;6606;49.154;9.280;2022-07-26T03:52:18;3.05;;;1.60;;
13079;SDS011;6606;49.154;9.280;2022-07-26T03:54:44;2.90;;;1.52;;
13079;SDS011;6606;49.154;9.280;2022-07-26T03:57:12;3.58;;;1.90;;
13079;SDS011;6606;49.154;9.280;2022-07-26T03:59:38;3.38;;;1.85;;
13079;SDS011;6606;49.154;9.280;2022-07-26T04:02:05;2.28;;;1.70;;
13079;SDS011;6606;49.154;9.280;2022-07-26T04:04:31;2.90;;;1.77;;
13079;SDS011;6606;49.154;9.280;2022-07-26T04:06:58;2.85;;;1.67;;
13079;SDS011;6606;49.154;9.280;2022-07-26T04:09:25;4.18;;;1.77;;
13079;SDS011;6606;49.154;9.280;2022-07-26T04:11:52;2.60;;;1.67;;
13079;SDS011;6606;49.154;9.280;2022-07-26T04:14:20;2.65;;;1.88;;
13079;SDS011;6606;49.154;9.280;2022-07-26T04:16:46;2.60;;;1.70;;
13079;SDS011;6606;49.154;9.280;2022-07-26T04:19:13;3.45;;;1.58;;
13079;SDS011;6606;49.154;9.280;2022-07-26T04:21:40;2.10;;;1.50;;
13079;SDS011;6606;49.154;9.280;2022-07-26T04:24:07;5.22;;;1.70;;
13079;SDS011;6606;49.154;9.280;2022-07-26T04:26:34;5.15;;;2.10;;
13079;SDS011;6606;49.154;9.280;2022-07-26T04:29:00;3.35;;;2.00;;
13079;SDS011;6606;49.154;9.280;2022-07-26T04:31:28;2.70;;;1.90;;
13079;SDS011;6606;49.154;9.280;2022-07-26T04:33:55;2.45;;;2.05;;
13079;SDS011;6606;49.154;9.280;2022-07-26T04:36:22;5.40;;;2.25;;
13079;SDS011;6606;49.154;9.280;2022-07-26T04:38:48;4.88;;;2.00;;
13079;SDS011;6606;49.154;9.280;2022-07-26T04:41:15;3.20;;;1.95;;
13079;SDS011;6606;49.154;9.280;2022-07-26T04:43:42;3.80;;;1.90;;
13079;SDS011;6606;49.154;9.280;2022-07-26T04:46:08;2.75;;;1.70;;
13079;SDS011;6606;49.154;9.280;2022-07-26T04:48:37;3.42;;;1.70;;
13079;SDS011;6606;49.154;9.280;2022-07-26T04:51:03;3.97;;;1.70;;
13079;SDS011;6606;49.154;9.280;2022-07-26T04:53:30;3.72;;;1.73;;
13079;SDS011;6606;49.154;9.280;2022-07-26T04:55:57;2.40;;;1.70;;
13079;SDS011;6606;49.154;9.280;2022-07-26T04:58:24;4.75;;;2.20;;
13079;SDS011;6606;49.154;9.280;2022-07-26T05:00:50;3.25;;;1.70;;
13079;SDS011;6606;49.154;9.280;2022-07-26T05:03:17;3.53;;;1.70;;
13079;SDS011;6606;49.154;9.280;2022-07-26T05:05:47;5.40;;;1.80;;
13079;SDS011;6606;49.154;9.280;2022-07-26T05:08:14;2.30;;;1.70;;
13079;SDS011;6606;49.154;9.280;2022-07-26T05:10:41;2.85;;;1.70;;
13079;SDS011;6606;49.154;9.280;2022-07-26T05:13:08;2.55;;;1.80;;
13079;SDS011;6606;49.154;9.280;2022-07-26T05:15:34;2.17;;;1.65;;
13079;SDS011;6606;49.154;9.280;2022-07-26T05:18:02;3.80;;;1.60;;
13079;SDS011;6606;49.154;9.280;2022-07-26T05:20:30;3.70;;;1.58;;
13079;SDS011;6606;49.154;9.280;2022-07-26T05:22:58;4.60;;;1.80;;
13079;SDS011;6606;49.154;9.280;2022-07-26T05:25:25;1.92;;;1.70;;
13079;SDS011;6606;49.154;9.280;2022-07-26T05:27:52;3.67;;;1.65;;
13079;SDS011;6606;49.154;9.280;2022-07-26T05:30:19;4.13;;;2.00;;
13079;SDS011;6606;49.154;9.280;2022-07-26T05:32:45;2.90;;;2.00;;
13079;SDS011;6606;49.154;9.280;2022-07-26T05:35:12;6.70;;;2.05;;
13079;SDS011;6606;49.154;9.280;2022-07-26T05:37:39;3.33;;;1.80;;
13079;SDS011;6606;49.154;9.280;2022-07-26T05:40:07;5.22;;;1.65;;
13079;SDS011;6606;49.154;9.280;2022-07-26T05:42:35;4.68;;;1.65;;
13079;SDS011;6606;49.154;9.280;2022-07-26T05:45:02;2.63;;;1.42;;
13079;SDS011;6606;49.154;9.280;2022-07-26T05:47:29;3.75;;;1.67;;
13079;SDS011;6606;49.154;9.280;2022-07-26T05:49:56;3.58;;;1.75;;
13079;SDS011;6606;49.154;9.280;2022-07-26T05:52:22;2.75;;;1.90;;
13079;SDS011;6606;49.154;9.280;2022-07-26T05:54:49;2.85;;;1.80;;
13079;SDS011;6606;49.154;9.280;2022-07-26T05:57:17;3.33;;;1.80;;
13079;SDS011;6606;49.154;9.280;2022-07-26T05:59:44;3.05;;;1.88;;
13079;SDS011;6606;49.154;9.280;2022-07-26T06:02:10;4.95;;;1.98;;
13079;SDS011;6606;49.154;9.280;2022-07-26T06:04:37;7.35;;;2.00;;
13079;SDS011;6606;49.154;9.280;2022-07-26T06:07:03;2.40;;;1.70;;
13079;SDS011;6606;49.154;9.280;2022-07-26T06:09:30;3.05;;;1.85;;
13079;SDS011;6606;49.154;9.280;2022-07-26T06:11:57;2.33;;;1.60;;
13079;SDS011;6606;49.154;9.280;2022-07-26T06:14:25;4.78;;;1.88;;
13079;SDS011;6606;49.154;9.280;2022-07-26T06:16:52;4.57;;;1.70;;
13079;SDS011;6606;49.154;9.280;2022-07-26T06:19:19;3.50;;;1.70;;
13079;SDS011;6606;49.154;9.280;2022-07-26T06:21:46;4.00;;;1.80;;
13079;SDS011;6606;49.154;9.280;2022-07-26T06:24:12;2.83;;;1.70;;
13079;SDS011;6606;49.154;9.280;2022-07-26T06:26:39;2.95;;;1.80;;
13079;SDS011;6606;49.154;9.280;2022-07-26T06:29:06;4.03;;;1.67;;
13079;SDS011;6606;49.154;9.280;2022-07-26T06:31:34;3.22;;;1.73;;
13079;SDS011;6606;49.154;9.280;2022-07-26T06:34:01;4.63;;;2.03;;
13079;SDS011;6606;49.154;9.280;2022-07-26T06:36:28;2.03;;;1.67;;
13079;SDS011;6606;49.154;9.280;2022-07-26T06:38:54;2.80;;;1.63;;
13079;SDS011;6606;49.154;9.280;2022-07-26T06:41:21;4.22;;;1.55;;
13079;SDS011;6606;49.154;9.280;2022-07-26T06:43:48;4.95;;;1.52;;
13079;SDS011;6606;49.154;9.280;2022-07-26T06:46:14;3.17;;;1.50;;
13079;SDS011;6606;49.154;9.280;2022-07-26T06:48:43;4.78;;;1.63;;
13079;SDS011;6606;49.154;9.280;2022-07-26T06:51:09;3.97;;;1.40;;
13079;SDS011;6606;49.154;9.280;2022-07-26T06:53:36;2.95;;;1.40;;
13079;SDS011;6606;49.154;9.280;2022-07-26T06:56:03;3.60;;;1.38;;
13079;SDS011;6606;49.154;9.280;2022-07-26T06:58:30;4.65;;;1.60;;
13079;SDS011;6606;49.154;9.280;2022-07-26T07:00:57;4.00;;;1.55;;
13079;SDS011;6606;49.154;9.280;2022-07-26T07:03:24;3.78;;;1.92;;
13079;SDS011;6606;49.154;9.280;2022-07-26T07:05:52;2.67;;;1.52;;
13079;SDS011;6606;49.154;9.280;2022-07-26T07:08:19;4.90;;;1.88;;
13079;SDS011;6606;49.154;9.280;2022-07-26T07:10:47;8.50;;;1.52;;
13079;SDS011;6606;49.154;9.280;2022-07-26T07:13:13;4.80;;;1.88;;
13079;SDS011;6606;49.154;9.280;2022-07-26T07:15:40;4.97;;;1.55;;
13079;SDS011;6606;49.154;9.280;2022-07-26T07:18:06;4.47;;;1.50;;
13079;SDS011;6606;49.154;9.280;2022-07-26T07:20:33;4.30;;;1.40;;
13079;SDS011;6606;49.154;9.280;2022-07-26T07:23:01;2.95;;;1.52;;
13079;SDS011;6606;49.154;9.280;2022-07-26T07:25:28;3.53;;;1.52;;
13079;SDS011;6606;49.154;9.280;2022-07-26T07:27:54;3.95;;;1.77;;
13079;SDS011;6606;49.154;9.280;2022-07-26T07:30:21;4.40;;;1.60;;
13079;SDS011;6606;49.154;9.280;2022-07-26T07:32:48;5.60;;;1.50;;
13079;SDS011;6606;49.154;9.280;2022-07-26T07:35:15;3.28;;;1.50;;
13079;SDS011;6606;49.154;9.280;2022-07-26T07:37:41;3.13;;;1.30;;
13079;SDS011;6606;49.154;9.280;2022-07-26T07:40:11;1.80;;;1.33;;
13079;SDS011;6606;49.154;9.280;2022-07-26T07:42:38;6.00;;;1.33;;
13079;SDS011;6606;49.154;9.280;2022-07-26T07:45:05;3.67;;;1.42;;
13079;SDS011;6606;49.154;9.280;2022-07-26T07:47:33;6.53;;;1.73;;
13079;SDS011;6606;49.154;9.280;2022-07-26T07:50:00;2.78;;;1.50;;
13079;SDS011;6606;49.154;9.280;2022-07-26T07:52:27;4.15;;;1.73;;
13079;SDS011;6606;49.154;9.280;2022-07-26T07:54:54;4.47;;;1.50;;
13079;SDS011;6606;49.154;9.280;2022-07-26T07:57:22;3.30;;;1.70;;
13079;SDS011;6606;49.154;9.280;2022-07-26T07:59:48;3.17;;;1.30;;
13079;SDS011;6606;49.154;9.280;2022-07-26T08:02:15;4.75;;;1.77;;
13079;SDS011;6606;49.154;9.280;2022-07-26T08:04:42;2.53;;;1.33;;
13079;SDS011;6606;49.154;9.280;2022-07-26T08:07:08;3.40;;;1.60;;
13079;SDS011;6606;49.154;9.280;2022-07-26T08:09:35;2.33;;;1.42;;
13079;SDS011;6606;49.154;9.280;2022-07-26T08:12:02;3.88;;;1.40;;
13079;SDS011;6606;49.154;9.280;2022-07-26T08:14:30;5.05;;;1.42;;
13079;SDS011;6606;49.154;9.280;2022-07-26T08:16:57;5.50;;;1.58;;
13079;SDS011;6606;49.154;9.280;2022-07-26T08:19:23;5.22;;;1.50;;
13079;SDS011;6606;49.154;9.280;2022-07-26T08:21:51;2.25;;;1.30;;
13079;SDS011;6606;49.154;9.280;2022-07-26T08:24:17;4.85;;;1.50;;
13079;SDS011;6606;49.154;9.280;2022-07-26T08:26:44;7.32;;;1.40;;
13079;SDS011;6606;49.154;9.280;2022-07-26T08:29:11;3.85;;;1.38;;
13079;SDS011;6606;49.154;9.280;2022-07-26T08:31:39;3.83;;;1.35;;
13079;SDS011;6606;49.154;9.280;2022-07-26T08:34:05;3.67;;;1.30;;
13079;SDS011;6606;49.154;9.280;2022-07-26T08:36:32;3.10;;;1.50;;
13079;SDS011;6606;49.154;9.280;2022-07-26T08:38:59;2.88;;;1.60;;
13079;SDS011;6606;49.154;9.280;2022-07-26T08:41:26;3.80;;;1.33;;
13079;SDS011;6606;49.154;9.280;2022-07-26T08:43:53;4.13;;;1.40;;
13079;SDS011;6606;49.154;9.280;2022-07-26T08:46:20;4.00;;;1.40;;
13079;SDS011;6606;49.154;9.280;2022-07-26T08:48:49;4.47;;;1.35;;
13079;SDS011;6606;49.154;9.280;2022-07-26T08:51:16;3.80;;;1.50;;
13079;SDS011;6606;49.154;9.280;2022-07-26T08:53:47;2.88;;;1.27;;
13079;SDS011;6606;49.154;9.280;2022-07-26T08:56:15;2.90;;;1.30;;
13079;SDS011;6606;49.154;9.280;2022-07-26T08:58:42;5.00;;;1.92;;
13079;SDS011;6606;49.154;9.280;2022-07-26T09:01:10;3.03;;;1.48;;
13079;SDS011;6606;49.154;9.280;2022-07-26T09:03:37;4.15;;;1.42;;
13079;SDS011;6606;49.154;9.280;2022-07-26T09:06:12;4.95;;;1.40;;
13079;SDS011;6606;49.154;9.280;2022-07-26T09:08:41;3.97;;;1.63;;
13079;SDS011;6606;49.154;9.280;2022-07-26T09:11:24;3.60;;;1.30;;
13079;SDS011;6606;49.154;9.280;2022-07-26T09:13:56;3.05;;;1.80;;
13079;SDS011;6606;49.154;9.280;2022-07-26T09:16:24;5.28;;;1.60;;
13079;SDS011;6606;49.154;9.280;2022-07-26T09:18:51;3.80;;;1.40;;
13079;SDS011;6606;49.154;9.280;2022-07-26T09:21:29;3.72;;;1.67;;
13079;SDS011;6606;49.154;9.280;2022-07-26T09:23:57;6.35;;;1.45;;
13079;SDS011;6606;49.154;9.280;2022-07-26T09:26:24;3.13;;;1.50;;
13079;SDS011;6606;49.154;9.280;2022-07-26T09:29:01;5.65;;;1.40;;
13079;SDS011;6606;49.154;9.280;2022-07-26T09:31:29;2.80;;;1.60;;
13079;SDS011;6606;49.154;9.280;2022-07-26T09:33:56;1.50;;;1.20;;
13079;SDS011;6606;49.154;9.280;2022-07-26T09:36:24;2.05;;;1.30;;
13079;SDS011;6606;49.154;9.280;2022-07-26T09:38:53;2.28;;;1.45;;
13079;SDS011;6606;49.154;9.280;2022-07-26T09:41:24;2.33;;;1.40;;
13079;SDS011;6606;49.154;9.280;2022-07-26T09:43:52;3.28;;;1.40;;
13079;SDS011;6606;49.154;9.280;2022-07-26T09:46:20;3.58;;;1.30;;
13079;SDS011;6606;49.154;9.280;2022-07-26T09:48:50;2.42;;;1.42;;
13079;SDS011;6606;49.154;9.280;2022-07-26T09:51:23;4.80;;;1.23;;
13079;SDS011;6606;49.154;9.280;2022-07-26T09:54:02;2.42;;;1.40;;
13079;SDS011;6606;49.154;9.280;2022-07-26T09:56:40;2.20;;;1.25;;
13079;SDS011;6606;49.154;9.280;2022-07-26T09:59:11;3.92;;;1.63;;
13079;SDS011;6606;49.154;9.280;2022-07-26T10:01:39;3.45;;;1.40;;
13079;SDS011;6606;49.154;9.280;2022-07-26T10:04:06;3.30;;;1.75;;
13079;SDS011;6606;49.154;9.280;2022-07-26T10:06:33;2.80;;;1.40;;
13079;SDS011;6606;49.154;9.280;2022-07-26T10:09:02;2.72;;;1.30;;
13079;SDS011;6606;49.154;9.280;2022-07-26T10:11:31;5.65;;;1.40;;
13079;SDS011;6606;49.154;9.280;2022-07-26T10:26:01;4.40;;;1.30;;
13079;SDS011;6606;49.154;9.280;2022-07-26T10:28:29;3.03;;;1.30;;
13079;SDS011;6606;49.154;9.280;2022-07-26T10:33:53;10.35;;;1.40;;
13079;SDS011;6606;49.154;9.280;2022-07-26T10:36:22;3.20;;;1.35;;
13079;SDS011;6606;49.154;9.280;2022-07-26T10:38:57;1.90;;;1.27;;
13079;SDS011;6606;49.154;9.280;2022-07-26T10:41:34;3.85;;;1.20;;
13079;SDS011;6606;49.154;9.280;2022-07-26T10:44:11;2.92;;;1.25;;
13079;SDS011;6606;49.154;9.280;2022-07-26T10:46:58;2.08;;;1.00;;
13079;SDS011;6606;49.154;9.280;2022-07-26T10:49:35;3.47;;;1.30;;
13079;SDS011;6606;49.154;9.280;2022-07-26T10:52:04;2.33;;;1.10;;
13079;SDS011;6606;49.154;9.280;2022-07-26T10:57:40;4.07;;;1.27;;
13079;SDS011;6606;49.154;9.280;2022-07-26T11:00:09;2.58;;;1.17;;
13079;SDS011;6606;49.154;9.280;2022-07-26T11:02:38;3.35;;;1.27;;
13079;SDS011;6606;49.154;9.280;2022-07-26T11:05:08;1.90;;;1.20;;
13079;SDS011;6606;49.154;9.280;2022-07-26T11:07:52;3.72;;;1.20;;
13079;SDS011;6606;49.154;9.280;2022-07-26T11:10:24;2.55;;;1.20;;
13079;SDS011;6606;49.154;9.280;2022-07-26T11:13:04;1.33;;;1.00;;
13079;SDS011;6606;49.154;9.280;2022-07-26T11:15:34;3.47;;;1.02;;
13079;SDS011;6606;49.154;9.280;2022-07-26T11:18:14;1.98;;;1.27;;
13079;SDS011;6606;49.154;9.280;2022-07-26T11:20:47;4.85;;;1.35;;
13079;SDS011;6606;49.154;9.280;2022-07-26T11:23:19;2.17;;;1.23;;
13079;SDS011;6606;49.154;9.280;2022-07-26T11:25:59;2.42;;;1.20;;
13079;SDS011;6606;49.154;9.280;2022-07-26T11:28:28;1.58;;;1.08;;
13079;SDS011;6606;49.154;9.280;2022-07-26T11:30:56;3.90;;;1.10;;
13079;SDS011;6606;49.154;9.280;2022-07-26T11:33:36;1.73;;;1.00;;
13079;SDS011;6606;49.154;9.280;2022-07-26T11:36:03;3.42;;;1.15;;
13079;SDS011;6606;49.154;9.280;2022-07-26T11:38:46;3.22;;;1.25;;
13079;SDS011;6606;49.154;9.280;2022-07-26T11:41:17;2.65;;;1.10;;
13079;SDS011;6606;49.154;9.280;2022-07-26T11:43:46;2.20;;;1.20;;
13079;SDS011;6606;49.154;9.280;2022-07-26T11:46:13;3.25;;;1.10;;
13079;SDS011;6606;49.154;9.280;2022-07-26T11:48:43;1.77;;;0.90;;
13079;SDS011;6606;49.154;9.280;2022-07-26T11:51:11;1.40;;;1.00;;
13079;SDS011;6606;49.154;9.280;2022-07-26T11:53:39;1.90;;;1.20;;
13079;SDS011;6606;49.154;9.280;2022-07-26T11:56:13;2.13;;;1.02;;
13079;SDS011;6606;49.154;9.280;2022-07-26T11:58:42;3.08;;;1.10;;
13079;SDS011;6606;49.154;9.280;2022-07-26T12:01:12;4.25;;;1.23;;
13079;SDS011;6606;49.154;9.280;2022-07-26T12:03:40;2.70;;;1.10;;
13079;SDS011;6606;49.154;9.280;2022-07-26T12:06:09;2.75;;;1.15;;
13079;SDS011;6606;49.154;9.280;2022-07-26T12:08:38;1.58;;;1.30;;
13079;SDS011;6606;49.154;9.280;2022-07-26T12:11:05;1.58;;;0.90;;
13079;SDS011;6606;49.154;9.280;2022-07-26T12:13:32;1.52;;;1.10;;
13079;SDS011;6606;49.154;9.280;2022-07-26T12:16:16;1.33;;;0.95;;
13079;SDS011;6606;49.154;9.280;2022-07-26T12:18:59;2.25;;;1.05;;
13079;SDS011;6606;49.154;9.280;2022-07-26T12:21:35;2.55;;;1.00;;
13079;SDS011;6606;49.154;9.280;2022-07-26T12:24:04;3.55;;;1.15;;
13079;SDS011;6606;49.154;9.280;2022-07-26T12:26:31;2.67;;;1.17;;
13079;SDS011;6606;49.154;9.280;2022-07-26T12:28:58;4.30;;;1.30;;
13079;SDS011;6606;49.154;9.280;2022-07-26T12:31:48;2.72;;;1.10;;
13079;SDS011;6606;49.154;9.280;2022-07-26T12:34:26;2.75;;;0.98;;
13079;SDS011;6606;49.154;9.280;2022-07-26T12:36:53;1.98;;;1.00;;
13079;SDS011;6606;49.154;9.280;2022-07-26T12:39:20;3.95;;;1.23;;
13079;SDS011;6606;49.154;9.280;2022-07-26T12:41:47;2.80;;;1.17;;
13079;SDS011;6606;49.154;9.280;2022-07-26T12:44:15;4.43;;;1.33;;
13079;SDS011;6606;49.154;9.280;2022-07-26T12:46:42;1.55;;;1.00;;
13079;SDS011;6606;49.154;9.280;2022-07-26T12:49:10;3.58;;;1.10;;
13079;SDS011;6606;49.154;9.280;2022-07-26T12:51:37;3.10;;;1.10;;
13079;SDS011;6606;49.154;9.280;2022-07-26T12:54:04;3.58;;;1.10;;
13079;SDS011;6606;49.154;9.280;2022-07-26T12:56:31;5.95;;;1.10;;
13079;SDS011;6606;49.154;9.280;2022-07-26T12:58:58;1.90;;;1.05;;
13079;SDS011;6606;49.154;9.280;2022-07-26T13:01:26;2.75;;;1.15;;
13079;SDS011;6606;49.154;9.280;2022-07-26T13:03:53;1.25;;;1.15;;
13079;SDS011;6606;49.154;9.280;2022-07-26T13:06:21;3.03;;;1.00;;
13079;SDS011;6606;49.154;9.280;2022-07-26T13:08:48;1.38;;;1.10;;
13079;SDS011;6606;49.154;9.280;2022-07-26T13:11:15;2.88;;;1.20;;
13079;SDS011;6606;49.154;9.280;2022-07-26T13:13:42;2.78;;;0.90;;
13079;SDS011;6606;49.154;9.280;2022-07-26T13:16:08;1.30;;;1.00;;
13079;SDS011;6606;49.154;9.280;2022-07-26T13:18:35;2.95;;;1.00;;
13079;SDS011;6606;49.154;9.280;2022-07-26T13:21:02;4.07;;;1.00;;
13079;SDS011;6606;49.154;9.280;2022-07-26T13:23:30;2.63;;;1.02;;
13079;SDS011;6606;49.154;9.280;2022-07-26T13:25:56;1.80;;;1.02;;
13079;SDS011;6606;49.154;9.280;2022-07-26T13:28:23;4.25;;;1.00;;
13079;SDS011;6606;49.154;9.280;2022-07-26T13:30:50;1.77;;;0.95;;
13079;SDS011;6606;49.154;9.280;2022-07-26T13:33:16;3.63;;;1.08;;
13079;SDS011;6606;49.154;9.280;2022-07-26T13:35:43;3.92;;;1.35;;
13079;SDS011;6606;49.154;9.280;2022-07-26T13:38:10;2.58;;;1.15;;
13079;SDS011;6606;49.154;9.280;2022-07-26T13:40:38;1.00;;;0.90;;
13079;SDS011;6606;49.154;9.280;2022-07-26T13:43:05;1.92;;;1.05;;
13079;SDS011;6606;49.154;9.280;2022-07-26T13:45:31;1.58;;;0.90;;
13079;SDS011;6606;49.154;9.280;2022-07-26T13:47:58;1.40;;;0.90;;
13079;SDS011;6606;49.154;9.280;2022-07-26T13:50:25;1.90;;;0.90;;
13079;SDS011;6606;49.154;9.280;2022-07-26T13:52:52;2.38;;;1.00;;
13079;SDS011;6606;49.154;9.280;2022-07-26T13:55:19;2.40;;;1.00;;
13079;SDS011;6606;49.154;9.280;2022-07-26T13:57:48;1.25;;;0.90;;
13079;SDS011;6606;49.154;9.280;2022-07-26T14:00:15;3.10;;;1.10;;
13079;SDS011;6606;49.154;9.280;2022-07-26T14:02:41;1.60;;;1.00;;
13079;SDS011;6606;49.154;9.280;2022-07-26T14:05:08;2.13;;;1.00;;
13079;SDS011;6606;49.154;9.280;2022-07-26T14:07:35;4.90;;;1.02;;
13079;SDS011;6606;49.154;9.280;2022-07-26T14:10:02;2.88;;;1.00;;
13079;SDS011;6606;49.154;9.280;2022-07-26T14:12:28;1.15;;;0.90;;
13079;SDS011;6606;49.154;9.280;2022-07-26T14:14:57;1.83;;;1.00;;
13079;SDS011;6606;49.154;9.280;2022-07-26T14:17:23;1.13;;;0.90;;
13079;SDS011;6606;49.154;9.280;2022-07-26T14:19:50;1.30;;;0.93;;
13079;SDS011;6606;49.154;9.280;2022-07-26T14:22:16;5.10;;;1.10;;
13079;SDS011;6606;49.154;9.280;2022-07-26T14:24:43;2.60;;;0.88;;
13079;SDS011;6606;49.154;9.280;2022-07-26T14:27:10;1.60;;;0.82;;
13079;SDS011;6606;49.154;9.280;2022-07-26T14:29:36;2.88;;;1.00;;
13079;SDS011;6606;49.154;9.280;2022-07-26T14:32:05;1.77;;;1.05;;
13079;SDS011;6606;49.154;9.280;2022-07-26T14:34:32;2.35;;;1.10;;
13079;SDS011;6606;49.154;9.280;2022-07-26T14:36:58;1.38;;;1.10;;
13079;SDS011;6606;49.154;9.280;2022-07-26T14:39:25;2.78;;;0.90;;
13079;SDS011;6606;49.154;9.280;2022-07-26T14:41:52;1.40;;;0.95;;
13079;SDS011;6606;49.154;9.280;2022-07-26T14:44:18;3.50;;;1.15;;
13079;SDS011;6606;49.154;9.280;2022-07-26T14:46:45;2.75;;;1.40;;
13079;SDS011;6606;49.154;9.280;2022-07-26T14:49:13;3.85;;;1.10;;
13079;SDS011;6606;49.154;9.280;2022-07-26T14:51:40;2.92;;;1.20;;
13079;SDS011;6606;49.154;9.280;2022-07-26T14:54:07;6.38;;;1.17;;
13079;SDS011;6606;49.154;9.280;2022-07-26T14:56:33;4.20;;;1.25;;
13079;SDS011;6606;49.154;9.280;2022-07-26T14:59:00;3.13;;;0.93;;
13079;SDS011;6606;49.154;9.280;2022-07-26T15:01:27;2.70;;;1.05;;
13079;SDS011;6606;49.154;9.280;2022-07-26T15:03:53;4.45;;;1.33;;
13079;SDS011;6606;49.154;9.280;2022-07-26T15:06:22;2.03;;;1.20;;
13079;SDS011;6606;49.154;9.280;2022-07-26T15:08:48;1.40;;;0.90;;
13079;SDS011;6606;49.154;9.280;2022-07-26T15:11:15;2.83;;;1.20;;
13079;SDS011;6606;49.154;9.280;2022-07-26T15:13:42;3.22;;;1.00;;
13079;SDS011;6606;49.154;9.280;2022-07-26T15:16:10;1.83;;;1.13;;
13079;SDS011;6606;49.154;9.280;2022-07-26T15:18:36;1.73;;;1.00;;
13079;SDS011;6606;49.154;9.280;2022-07-26T15:21:03;2.33;;;1.10;;
13079;SDS011;6606;49.154;9.280;2022-07-26T15:23:32;3.35;;;0.95;;